Time;durP1;ratioP1;P1;durP2;ratioP2;P2;SDS_P1;SDS_P2;PMS_P1;PMS_P2;Temp;Humidity;BMP_temperature;BMP_pressure;BME280_temperature;BME280_humidity;BME280_pressure;Samples;Min_cycle;Max_cycle;Signal;HPM_P1;HPM_P2
2023/03/17 00:00:31;;;;;;;113.50;35.90;;;-3.70;99.90;;;;;;4412589;28;659841;-73
2023/03/17 00:03:20;;;;;;;147.93;43.20;;;-3.70;99.90;;;;;;4439850;28;660598;-73
2023/03/17 00:06:10;;;;;;;99.57;31.73;;;-3.70;99.90;;;;;;4417396;28;660772;-73
2023/03/17 00:08:57;;;;;;;392.30;76.43;;;-3.80;99.90;;;;;;4420896;28;660066;-73
2023/03/17 00:11:45;;;;;;;873.07;197.47;;;-3.80;99.90;;;;;;4436262;28;660031;-72
2023/03/17 00:14:33;;;;;;;586.30;123.20;;;-3.80;99.90;;;;;;4411240;28;661615;-73
2023/03/17 00:17:21;;;;;;;420.47;86.20;;;-3.80;99.90;;;;;;4421304;28;661292;-73
2023/03/17 00:20:13;;;;;;;117.53;31.43;;;-3.80;99.90;;;;;;4437201;28;660466;-72
2023/03/17 00:23:03;;;;;;;86.10;24.03;;;-3.80;99.90;;;;;;4386924;28;659577;-73
2023/03/17 00:25:52;;;;;;;543.70;116.00;;;-3.80;99.90;;;;;;4424504;28;659076;-73
2023/03/17 00:28:39;;;;;;;672.13;159.43;;;-3.80;99.90;;;;;;4437741;28;660857;-73
2023/03/17 00:31:28;;;;;;;517.50;110.50;;;-3.90;99.90;;;;;;4418260;28;660480;-73
2023/03/17 00:34:17;;;;;;;241.73;55.97;;;-3.90;99.90;;;;;;4413566;28;660313;-73
2023/03/17 00:37:04;;;;;;;123.53;33.63;;;-3.90;99.90;;;;;;4435643;28;659942;-72
2023/03/17 00:39:51;;;;;;;68.10;21.80;;;-3.80;99.90;;;;;;4413278;28;659785;-73
2023/03/17 00:42:39;;;;;;;94.67;27.07;;;-3.90;99.90;;;;;;4436258;28;658841;-72
2023/03/17 00:45:27;;;;;;;82.53;24.40;;;-3.90;99.90;;;;;;4417516;28;659213;-73
2023/03/17 00:48:16;;;;;;;144.97;37.43;;;-3.90;99.90;;;;;;4410927;28;658373;-73
2023/03/17 00:51:04;;;;;;;159.60;40.70;;;-3.90;99.90;;;;;;4390915;28;660395;-72
2023/03/17 00:53:51;;;;;;;157.93;40.93;;;-3.90;99.90;;;;;;4401275;28;659558;-73
2023/03/17 00:56:39;;;;;;;175.73;42.50;;;-4.00;99.90;;;;;;4417343;28;660088;-73
2023/03/17 00:59:28;;;;;;;82.57;24.27;;;-4.00;99.90;;;;;;4403295;28;659745;-73
2023/03/17 01:02:15;;;;;;;81.00;23.83;;;-4.00;99.90;;;;;;4404195;28;659328;-73
2023/03/17 01:05:05;;;;;;;104.23;27.47;;;-4.00;99.90;;;;;;4421903;28;659661;-73
2023/03/17 01:07:54;;;;;;;82.07;23.23;;;-4.00;99.90;;;;;;4394857;28;660746;-73
2023/03/17 01:10:41;;;;;;;182.87;46.57;;;-4.00;99.90;;;;;;4389123;28;658793;-72
2023/03/17 01:13:29;;;;;;;151.30;38.47;;;-4.10;99.90;;;;;;4401096;28;660635;-72
2023/03/17 01:16:16;;;;;;;48.73;16.07;;;-4.10;99.90;;;;;;4388856;28;660287;-73
2023/03/17 01:19:04;;;;;;;37.70;14.23;;;-4.10;99.90;;;;;;4417758;28;658581;-73
2023/03/17 01:21:53;;;;;;;42.37;15.07;;;-4.10;99.90;;;;;;4403796;28;658928;-73
2023/03/17 01:24:40;;;;;;;72.10;21.40;;;-4.00;99.90;;;;;;4406458;28;658983;-73
2023/03/17 01:27:28;;;;;;;66.37;20.03;;;-4.00;99.90;;;;;;4423972;28;659436;-73
2023/03/17 01:30:23;;;;;;;60.80;19.30;;;-4.10;99.90;;;;;;4417243;28;658458;-74
2023/03/17 01:33:11;;;;;;;155.17;47.70;;;-4.10;99.90;;;;;;4374634;28;659464;-73
2023/03/17 01:35:58;;;;;;;152.90;47.63;;;-4.10;99.90;;;;;;4415683;28;659974;-73
2023/03/17 01:38:49;;;;;;;219.33;69.33;;;-4.10;99.90;;;;;;4388491;28;659877;-73
2023/03/17 01:41:38;;;;;;;107.07;35.50;;;-4.00;99.90;;;;;;4381832;28;660352;-72
2023/03/17 01:44:26;;;;;;;100.23;33.97;;;-4.00;99.90;;;;;;4399259;28;660159;-73
2023/03/17 01:47:13;;;;;;;105.27;34.27;;;-4.00;99.90;;;;;;4430941;28;660290;-73
2023/03/17 01:50:04;;;;;;;72.33;24.87;;;-4.00;99.90;;;;;;4408177;28;660113;-73
2023/03/17 01:52:51;;;;;;;134.30;42.60;;;-4.00;99.90;;;;;;4421011;28;659167;-73
2023/03/17 01:55:41;;;;;;;46.10;15.90;;;-4.10;99.90;;;;;;4436779;28;659215;-74
2023/03/17 01:58:28;;;;;;;63.60;18.73;;;-4.10;99.90;;;;;;4417331;28;659920;-72
2023/03/17 02:01:16;;;;;;;72.27;20.90;;;-4.00;99.90;;;;;;4416378;28;659112;-73
2023/03/17 02:04:03;;;;;;;945.17;144.70;;;-4.10;99.90;;;;;;4441999;28;659697;-72
2023/03/17 02:06:51;;;;;;;1341.20;227.37;;;-4.10;99.90;;;;;;4405210;28;660431;-73
2023/03/17 02:09:38;;;;;;;816.23;114.90;;;-4.10;99.90;;;;;;4433205;28;662981;-73
2023/03/17 02:12:27;;;;;;;676.03;91.83;;;-4.10;99.90;;;;;;4415166;28;661299;-72
2023/03/17 02:15:16;;;;;;;702.70;99.50;;;-4.10;99.90;;;;;;4439719;28;660320;-73
2023/03/17 02:18:03;;;;;;;891.43;131.67;;;-4.10;99.90;;;;;;4438590;28;660253;-73
2023/03/17 02:21:32;;;;;;;796.80;117.07;;;-4.10;99.90;;;;;;4415239;28;660735;-73
2023/03/17 02:24:25;;;;;;;186.23;28.93;;;-4.10;99.90;;;;;;4426780;28;660573;-73
2023/03/17 02:27:13;;;;;;;309.17;44.20;;;-4.10;99.90;;;;;;4416348;28;660113;-73
2023/03/17 02:30:01;;;;;;;187.47;29.93;;;-4.10;99.90;;;;;;4412599;28;660076;-73
2023/03/17 02:32:48;;;;;;;113.90;20.70;;;-4.10;99.90;;;;;;4430816;28;660613;-73
2023/03/17 02:35:35;;;;;;;86.28;17.25;;;-4.10;99.90;;;;;;4425514;28;659772;-73
2023/03/17 02:38:24;;;;;;;38.97;12.77;;;-4.10;99.90;;;;;;4442715;28;659083;-73
2023/03/17 02:41:12;;;;;;;33.90;11.87;;;-4.10;99.90;;;;;;4411364;28;659778;-73
2023/03/17 02:43:59;;;;;;;49.23;13.43;;;-4.10;99.90;;;;;;4438153;28;658292;-73
2023/03/17 02:46:46;;;;;;;197.13;30.60;;;-4.10;99.90;;;;;;4421491;28;658927;-73
2023/03/17 02:49:34;;;;;;;55.93;15.13;;;-4.10;99.90;;;;;;4438576;28;660631;-72
2023/03/17 02:52:21;;;;;;;42.43;12.93;;;-4.10;99.90;;;;;;4409428;28;658643;-72
2023/03/17 02:55:10;;;;;;;52.33;14.70;;;-4.10;99.90;;;;;;4435898;28;658659;-72
2023/03/17 02:57:57;;;;;;;98.43;19.60;;;-4.10;99.90;;;;;;4414428;28;659506;-73
2023/03/17 03:00:44;;;;;;;41.13;14.13;;;-4.00;99.90;;;;;;4435833;28;657836;-73
2023/03/17 03:03:32;;;;;;;50.73;14.80;;;-4.00;99.90;;;;;;4406838;28;659614;-73
2023/03/17 03:06:19;;;;;;;55.80;17.47;;;-4.00;99.90;;;;;;4433779;28;658891;-73
2023/03/17 03:09:06;;;;;;;55.03;19.37;;;-4.00;99.90;;;;;;4421636;28;658631;-73
2023/03/17 03:11:55;;;;;;;50.23;16.80;;;-3.90;99.90;;;;;;4439904;28;659685;-73
2023/03/17 03:14:42;;;;;;;38.43;14.57;;;-3.90;99.90;;;;;;4409908;28;659997;-73
2023/03/17 03:17:30;;;;;;;38.97;14.30;;;-3.50;99.90;;;;;;4441275;28;659223;-73
2023/03/17 03:20:18;;;;;;;41.07;15.73;;;-3.40;99.90;;;;;;4445963;28;658759;-73
2023/03/17 03:23:05;;;;;;;98.37;23.10;;;-3.30;99.90;;;;;;4432964;28;658823;-74
2023/03/17 03:25:52;;;;;;;80.63;20.30;;;-3.30;99.90;;;;;;4443905;28;658528;-73
2023/03/17 03:28:41;;;;;;;52.40;17.00;;;-3.20;99.90;;;;;;4445587;28;658024;-72
2023/03/17 03:31:28;;;;;;;43.90;13.95;;;-3.00;99.90;;;;;;4413310;28;664018;-73
2023/03/17 03:34:16;;;;;;;38.77;13.33;;;-3.00;99.90;;;;;;4417608;28;658758;-74
2023/03/17 03:37:03;;;;;;;39.33;13.38;;;-3.00;99.90;;;;;;4435879;28;658946;-74
2023/03/17 03:39:51;;;;;;;42.08;13.57;;;-3.00;99.90;;;;;;4419395;28;659150;-73
2023/03/17 03:42:38;;;;;;;37.73;14.43;;;-2.90;99.90;;;;;;4438856;28;659254;-73
2023/03/17 03:45:27;;;;;;;34.47;14.03;;;-2.80;99.90;;;;;;4422749;28;658893;-73
2023/03/17 03:48:14;;;;;;;34.87;13.10;;;-2.80;99.90;;;;;;4419614;28;658436;-73
2023/03/17 03:51:02;;;;;;;35.80;13.88;;;-2.80;99.90;;;;;;4382727;28;658701;-73
2023/03/17 03:53:49;;;;;;;39.33;13.10;;;-2.70;99.90;;;;;;4407628;28;658321;-73
2023/03/17 03:56:36;;;;;;;35.50;13.37;;;-2.70;99.90;;;;;;4386870;28;658671;-73
2023/03/17 03:59:24;;;;;;;42.27;13.27;;;-2.70;99.90;;;;;;4420388;28;659075;-72
2023/03/17 04:02:12;;;;;;;37.83;13.60;;;-2.70;99.90;;;;;;4381254;28;658501;-73
2023/03/17 04:05:00;;;;;;;29.80;12.37;;;-2.70;99.90;;;;;;4401707;28;659376;-74
2023/03/17 04:07:47;;;;;;;38.47;14.07;;;-2.70;99.90;;;;;;4423862;28;657937;-73
2023/03/17 04:10:35;;;;;;;31.93;12.60;;;-2.70;99.90;;;;;;4417144;28;658398;-73
2023/03/17 04:13:23;;;;;;;37.70;12.50;;;-2.70;99.90;;;;;;4423275;28;659827;-73
2023/03/17 04:16:11;;;;;;;33.93;12.93;;;-2.70;99.90;;;;;;4414938;28;658612;-74
2023/03/17 04:19:00;;;;;;;36.97;13.77;;;-2.70;99.90;;;;;;4410468;28;659313;-74
2023/03/17 04:21:47;;;;;;;33.67;14.63;;;-2.70;99.90;;;;;;4392233;28;658698;-73
2023/03/17 04:24:36;;;;;;;31.13;13.40;;;-2.80;99.90;;;;;;4415301;28;659025;-74
2023/03/17 04:27:23;;;;;;;29.23;12.63;;;-2.80;99.90;;;;;;4422171;28;659795;-73
2023/03/17 04:30:12;;;;;;;34.60;13.45;;;-2.80;99.90;;;;;;4413179;28;658908;-74
2023/03/17 04:32:59;;;;;;;34.78;12.45;;;-2.90;99.90;;;;;;4427014;28;659518;-73
2023/03/17 04:35:48;;;;;;;29.83;13.67;;;-2.80;99.90;;;;;;4395441;28;658855;-73
2023/03/17 04:38:35;;;;;;;37.63;14.40;;;-2.90;99.90;;;;;;4399454;28;659023;-73
2023/03/17 04:41:22;;;;;;;37.50;15.40;;;-2.80;99.90;;;;;;4428700;28;659715;-73
2023/03/17 04:44:10;;;;;;;32.93;14.77;;;-2.90;99.90;;;;;;4423442;28;659833;-73
2023/03/17 04:46:57;;;;;;;38.10;14.27;;;-2.80;99.90;;;;;;4425110;28;658754;-72
2023/03/17 04:49:45;;;;;;;35.63;14.97;;;-2.80;99.90;;;;;;4438715;28;658651;-74
2023/03/17 04:52:34;;;;;;;35.70;15.03;;;-2.80;99.90;;;;;;4438965;28;658651;-73
2023/03/17 04:55:21;;;;;;;36.77;14.27;;;-2.80;99.90;;;;;;4408507;28;658829;-73
2023/03/17 04:58:08;;;;;;;46.53;17.10;;;-2.70;99.90;;;;;;4420413;28;659215;-72
2023/03/17 05:00:55;;;;;;;627.43;128.43;;;-2.70;99.90;;;;;;4402487;28;659078;-71
2023/03/17 05:03:44;;;;;;;352.20;67.77;;;-2.70;99.90;;;;;;4411380;28;661180;-72
2023/03/17 05:06:31;;;;;;;820.33;150.30;;;-2.70;99.90;;;;;;4409968;28;659887;-73
2023/03/17 05:09:20;;;;;;;847.53;161.07;;;-2.60;99.90;;;;;;4423212;28;661799;-73
2023/03/17 05:12:08;;;;;;;640.07;137.73;;;-2.50;99.90;;;;;;4398150;28;661844;-73
2023/03/17 05:14:56;;;;;;;411.87;84.63;;;-2.50;99.90;;;;;;4417001;28;660960;-73
2023/03/17 05:17:43;;;;;;;181.63;47.63;;;-2.40;99.90;;;;;;4416129;28;660254;-73
2023/03/17 05:20:30;;;;;;;92.68;30.13;;;-2.30;99.90;;;;;;4405160;28;659476;-73
2023/03/17 05:23:17;;;;;;;76.70;25.07;;;-2.20;99.90;;;;;;4412630;28;660038;-73
2023/03/17 05:26:07;;;;;;;53.57;19.43;;;-2.10;99.90;;;;;;4416850;28;658458;-74
2023/03/17 05:28:54;;;;;;;42.63;17.23;;;-2.00;99.90;;;;;;4427691;28;658390;-73
2023/03/17 05:31:41;;;;;;;40.57;16.83;;;-1.90;99.90;;;;;;4400128;28;658475;-73
2023/03/17 05:34:28;;;;;;;57.83;21.20;;;-1.80;99.90;;;;;;4430590;28;659128;-72
2023/03/17 05:37:16;;;;;;;105.03;36.40;;;-1.70;99.90;;;;;;4412008;28;658810;-73
2023/03/17 05:40:03;;;;;;;61.27;22.10;;;-1.50;99.90;;;;;;4432287;28;659805;-74
2023/03/17 05:42:52;;;;;;;56.77;23.77;;;-1.40;99.90;;;;;;4395786;28;659159;-73
2023/03/17 05:45:40;;;;;;;62.50;24.23;;;-1.20;99.90;;;;;;4437934;28;658969;-73
2023/03/17 05:48:27;;;;;;;46.20;18.70;;;-1.10;99.90;;;;;;4395985;28;659150;-73
2023/03/17 05:51:14;;;;;;;45.60;17.03;;;-0.90;99.90;;;;;;4427490;28;658601;-73
2023/03/17 05:54:01;;;;;;;64.53;22.30;;;-0.80;99.90;;;;;;4382998;28;658870;-73
2023/03/17 05:56:49;;;;;;;53.90;18.03;;;-0.70;99.90;;;;;;4404045;28;658860;-73
2023/03/17 05:59:38;;;;;;;49.57;17.47;;;-0.50;99.90;;;;;;4381258;28;658640;-70
2023/03/17 06:02:25;;;;;;;42.17;15.40;;;-0.30;99.90;;;;;;4397400;28;658788;-71
2023/03/17 06:05:13;;;;;;;36.77;15.00;;;-0.20;99.90;;;;;;4407129;28;659182;-70
2023/03/17 06:08:00;;;;;;;45.87;16.07;;;-0.10;99.90;;;;;;4397394;28;659385;-71
2023/03/17 06:10:48;;;;;;;136.70;35.93;;;0.00;99.90;;;;;;4409370;28;660147;-70
2023/03/17 06:13:35;;;;;;;57.40;21.00;;;0.20;99.90;;;;;;4385948;28;658611;-71
2023/03/17 06:16:24;;;;;;;34.80;14.40;;;0.30;99.90;;;;;;4400418;28;658124;-71
2023/03/17 06:19:11;;;;;;;38.50;14.75;;;0.40;99.90;;;;;;4382787;28;658349;-70
2023/03/17 06:21:58;;;;;;;40.40;15.47;;;0.50;99.90;;;;;;4428099;28;657840;-70
2023/03/17 06:24:46;;;;;;;52.27;18.70;;;0.60;99.90;;;;;;4393359;28;658160;-71
2023/03/17 06:27:33;;;;;;;33.50;13.33;;;0.80;99.90;;;;;;4414338;28;658281;-71
2023/03/17 06:30:21;;;;;;;35.42;14.50;;;0.80;99.90;;;;;;4408100;28;657996;-71
2023/03/17 06:33:09;;;;;;;31.33;13.93;;;1.00;99.90;;;;;;4426455;28;659134;-70
2023/03/17 06:35:57;;;;;;;41.50;15.77;;;1.10;99.90;;;;;;4397891;28;657839;-71
2023/03/17 06:38:44;;;;;;;35.27;13.60;;;1.10;99.90;;;;;;4426126;28;657764;-70
2023/03/17 06:41:32;;;;;;;29.73;12.17;;;1.30;99.90;;;;;;4399765;28;658374;-70
2023/03/17 06:44:19;;;;;;;35.13;13.73;;;1.40;99.90;;;;;;4431218;28;659097;-71
2023/03/17 06:47:06;;;;;;;29.25;10.85;;;1.50;99.90;;;;;;4401792;28;657528;-72
2023/03/17 06:49:55;;;;;;;32.97;11.87;;;1.60;99.90;;;;;;4442941;28;657213;-71
2023/03/17 06:52:42;;;;;;;24.90;11.23;;;1.80;99.90;;;;;;4422561;28;658016;-71
2023/03/17 06:55:30;;;;;;;30.80;11.33;;;1.90;99.90;;;;;;4434260;28;657698;-70
2023/03/17 06:58:19;;;;;;;35.57;12.60;;;2.10;99.90;;;;;;4420787;28;658450;-70
2023/03/17 07:01:07;;;;;;;31.37;11.43;;;2.20;99.90;;;;;;4416658;28;658653;-72
2023/03/17 07:03:55;;;;;;;25.57;10.50;;;2.30;99.90;;;;;;4441667;28;657061;-71
2023/03/17 07:06:44;;;;;;;31.80;11.67;;;2.50;99.90;;;;;;4434160;28;658815;-70
2023/03/17 07:09:33;;;;;;;28.73;11.27;;;2.60;99.90;;;;;;4416083;28;658042;-70
2023/03/17 07:12:20;;;;;;;37.40;12.60;;;2.70;99.90;;;;;;4413488;28;657483;-70
2023/03/17 07:15:09;;;;;;;30.57;11.47;;;2.90;99.90;;;;;;4441922;28;657666;-71
2023/03/17 07:17:56;;;;;;;20.83;9.83;;;3.00;99.90;;;;;;4417344;28;657366;-70
2023/03/17 07:20:44;;;;;;;23.77;9.33;;;3.10;99.90;;;;;;4444819;28;657635;-70
2023/03/17 07:23:32;;;;;;;46.97;14.33;;;3.20;99.90;;;;;;4422604;28;656663;-70
2023/03/17 07:26:20;;;;;;;25.83;9.53;;;3.30;99.90;;;;;;4425220;28;657749;-71
2023/03/17 07:29:08;;;;;;;24.00;9.83;;;3.50;99.90;;;;;;4442225;28;657344;-70
2023/03/17 07:31:56;;;;;;;21.40;8.67;;;3.60;99.90;;;;;;4417121;28;657127;-71
2023/03/17 07:34:43;;;;;;;22.77;8.33;;;3.80;99.90;;;;;;4447431;28;657555;-70
2023/03/17 07:37:30;;;;;;;21.13;8.50;;;4.00;97.70;;;;;;4422963;28;656603;-71
2023/03/17 07:40:19;;;;;;;25.77;9.83;;;4.20;93.60;;;;;;4443224;28;657378;-69
2023/03/17 07:43:07;;;;;;;27.40;10.63;;;4.30;95.40;;;;;;4413054;28;656675;-70
2023/03/17 07:45:54;;;;;;;29.83;11.37;;;4.40;95.10;;;;;;4438953;28;657303;-69
2023/03/17 07:48:42;;;;;;;24.03;10.43;;;4.60;93.30;;;;;;4419158;28;657537;-70
2023/03/17 07:51:30;;;;;;;27.73;12.07;;;4.70;91.70;;;;;;4443506;28;657596;-70
2023/03/17 07:54:17;;;;;;;27.67;11.40;;;4.70;92.00;;;;;;4441152;28;658404;-69
2023/03/17 07:57:07;;;;;;;28.30;11.67;;;4.70;92.30;;;;;;4435209;28;657683;-70
2023/03/17 07:59:54;;;;;;;27.23;12.53;;;4.80;91.10;;;;;;4437981;28;657581;-69
2023/03/17 08:02:41;;;;;;;24.90;11.07;;;4.90;91.80;;;;;;4415398;28;658011;-69
2023/03/17 08:05:29;;;;;;;29.27;11.10;;;5.10;92.50;;;;;;4431937;28;658779;-70
2023/03/17 08:08:17;;;;;;;26.27;12.47;;;5.20;91.00;;;;;;4389314;28;658082;-70
2023/03/17 08:11:04;;;;;;;33.90;13.30;;;5.30;92.00;;;;;;4438787;28;657570;-70
2023/03/17 08:13:53;;;;;;;34.67;13.63;;;5.50;90.30;;;;;;4414453;28;658108;-70
2023/03/17 08:16:41;;;;;;;27.83;11.00;;;5.60;91.40;;;;;;4419761;28;658049;-71
2023/03/17 08:19:28;;;;;;;26.50;11.70;;;5.70;89.00;;;;;;4440462;28;658641;-71
2023/03/17 08:22:16;;;;;;;31.17;12.23;;;5.90;82.20;;;;;;4419913;28;657750;-71
2023/03/17 08:25:03;;;;;;;38.97;14.17;;;6.10;80.60;;;;;;4443757;28;657843;-72
2023/03/17 08:27:51;;;;;;;28.03;12.53;;;6.30;86.50;;;;;;4427675;28;657788;-71
2023/03/17 08:30:41;;;;;;;28.83;11.70;;;6.50;81.30;;;;;;4449438;28;657766;-71
2023/03/17 08:33:28;;;;;;;27.73;12.33;;;6.80;79.60;;;;;;4418291;28;657959;-72
2023/03/17 08:36:16;;;;;;;25.63;10.20;;;6.90;81.40;;;;;;4425047;28;657393;-73
2023/03/17 08:39:04;;;;;;;26.83;11.13;;;7.00;73.90;;;;;;4444846;28;657903;-70
2023/03/17 08:41:51;;;;;;;24.50;9.57;;;6.90;70.00;;;;;;4426911;28;657655;-71
2023/03/17 08:44:38;;;;;;;24.87;11.00;;;6.90;68.70;;;;;;4445220;28;656769;-72
2023/03/17 08:47:28;;;;;;;20.03;9.23;;;7.10;69.40;;;;;;4412766;28;657570;-72
2023/03/17 08:50:17;;;;;;;26.73;10.67;;;7.40;69.40;;;;;;4424224;28;656474;-72
2023/03/17 08:53:04;;;;;;;23.83;9.50;;;7.60;68.30;;;;;;4447157;28;657977;-72
2023/03/17 08:55:51;;;;;;;28.37;10.33;;;7.80;67.60;;;;;;4427160;28;656471;-73
2023/03/17 08:58:39;;;;;;;27.53;10.80;;;8.10;61.80;;;;;;4441494;28;658825;-72
2023/03/17 09:01:27;;;;;;;25.87;10.70;;;8.30;62.10;;;;;;4424893;28;658096;-72
2023/03/17 09:04:15;;;;;;;22.97;10.30;;;8.50;63.40;;;;;;4443799;28;657076;-72
2023/03/17 09:07:03;;;;;;;26.47;11.10;;;8.60;62.50;;;;;;4417722;28;658299;-73
2023/03/17 09:09:50;;;;;;;27.17;10.50;;;8.70;60.60;;;;;;4436726;28;658271;-73
2023/03/17 09:12:37;;;;;;;29.07;11.60;;;9.00;60.60;;;;;;4440678;28;658661;-71
2023/03/17 09:15:25;;;;;;;27.67;10.57;;;9.00;57.10;;;;;;4431503;28;657391;-72
2023/03/17 09:18:13;;;;;;;28.30;10.53;;;9.20;59.80;;;;;;4445560;28;658348;-72
2023/03/17 09:21:02;;;;;;;27.30;10.93;;;9.40;56.70;;;;;;4416998;28;657889;-72
2023/03/17 09:23:49;;;;;;;25.63;10.30;;;9.40;57.70;;;;;;4443399;28;657724;-73
2023/03/17 09:26:36;;;;;;;21.37;9.60;;;9.50;57.60;;;;;;4422058;28;657938;-72
2023/03/17 09:29:24;;;;;;;22.13;9.67;;;9.80;54.70;;;;;;4443311;28;656408;-71
2023/03/17 09:32:11;;;;;;;20.73;9.43;;;9.80;52.60;;;;;;4424596;28;657353;-73
2023/03/17 09:34:58;;;;;;;17.30;9.10;;;9.70;51.00;;;;;;4449054;28;656814;-72
2023/03/17 09:37:47;;;;;;;22.73;9.20;;;9.90;51.20;;;;;;4420948;28;656424;-73
2023/03/17 09:40:47;;;;;;;19.17;8.67;;;10.10;49.70;;;;;;4439220;28;656005;-71
2023/03/17 09:43:37;;;;;;;19.50;8.53;;;10.40;49.20;;;;;;4418850;28;657580;-71
2023/03/17 09:46:29;;;;;;;16.13;7.07;;;10.60;48.70;;;;;;4424443;28;657499;-71
2023/03/17 09:49:19;;;;;;;17.80;7.03;;;10.60;49.30;;;;;;4398202;28;657923;-71
2023/03/17 09:52:10;;;;;;;17.33;7.10;;;10.80;46.90;;;;;;4416062;28;658056;-71
2023/03/17 09:54:59;;;;;;;11.83;5.77;;;11.10;44.90;;;;;;4419434;28;657802;-72
2023/03/17 09:57:46;;;;;;;18.20;6.57;;;11.30;43.20;;;;;;4415572;28;658054;-72
2023/03/17 10:00:34;;;;;;;16.25;7.25;;;11.10;41.30;;;;;;4435668;28;657487;-71
2023/03/17 10:03:21;;;;;;;17.67;6.60;;;11.20;44.80;;;;;;4422478;28;658208;-71
2023/03/17 10:06:16;;;;;;;14.27;6.20;;;11.60;43.30;;;;;;4443953;28;657931;-71
2023/03/17 10:09:18;;;;;;;13.07;6.00;;;11.90;40.10;;;;;;4414093;28;657634;-72
2023/03/17 10:12:09;;;;;;;14.40;6.10;;;11.50;40.00;;;;;;4405814;28;658009;-72
2023/03/17 10:14:58;;;;;;;16.60;6.93;;;11.50;38.90;;;;;;4418373;28;657486;-72
2023/03/17 10:17:46;;;;;;;21.23;8.10;;;11.60;40.30;;;;;;4425879;28;657499;-72
2023/03/17 10:20:33;;;;;;;11.17;5.03;;;12.20;42.50;;;;;;4444304;28;658039;-71
2023/03/17 10:23:21;;;;;;;8.37;4.30;;;12.50;36.20;;;;;;4421068;28;658126;-72
2023/03/17 10:26:16;;;;;;;8.77;3.93;;;12.40;36.10;;;;;;4443262;28;656225;-71
2023/03/17 10:29:04;;;;;;;11.23;5.30;;;11.80;33.00;;;;;;4420583;28;656982;-71
2023/03/17 10:31:52;;;;;;;14.27;5.90;;;12.00;36.20;;;;;;4421972;28;657481;-71
2023/03/17 10:34:40;;;;;;;16.07;5.90;;;12.50;37.00;;;;;;4444802;28;657649;-71
2023/03/17 10:37:28;;;;;;;10.83;5.37;;;12.90;33.60;;;;;;4415633;28;658162;-72
2023/03/17 10:40:23;;;;;;;12.90;5.67;;;12.70;33.10;;;;;;4424152;28;657387;-72
2023/03/17 10:43:14;;;;;;;12.23;5.80;;;12.40;36.40;;;;;;4396584;28;657749;-72
2023/03/17 10:46:04;;;;;;;12.97;5.83;;;12.90;34.30;;;;;;4422541;28;658251;-72
2023/03/17 10:48:52;;;;;;;14.53;5.30;;;13.10;33.00;;;;;;4416612;28;657598;-72
2023/03/17 10:51:40;;;;;;;12.50;5.97;;;13.30;32.50;;;;;;4440391;28;657895;-72
2023/03/17 10:54:28;;;;;;;9.07;5.13;;;12.80;31.10;;;;;;4446089;28;657674;-71
2023/03/17 10:57:17;;;;;;;12.40;5.67;;;12.70;34.00;;;;;;4438581;28;656378;-72
2023/03/17 11:00:08;;;;;;;11.17;5.87;;;12.70;33.90;;;;;;4440281;28;657324;-71
2023/03/17 11:02:57;;;;;;;13.20;5.40;;;13.20;32.70;;;;;;4428214;28;657257;-72
2023/03/17 11:05:56;;;;;;;16.37;5.40;;;13.30;31.90;;;;;;4442685;28;657280;-72
2023/03/17 11:08:47;;;;;;;11.77;5.30;;;13.50;30.00;;;;;;4418824;28;658189;-72
2023/03/17 11:11:42;;;;;;;10.80;5.30;;;12.80;33.80;;;;;;4414552;28;657873;-72
2023/03/17 11:14:29;;;;;;;13.47;6.27;;;12.40;32.00;;;;;;4416398;28;657826;-74
2023/03/17 11:17:18;;;;;;;18.47;6.90;;;12.70;32.40;;;;;;4414150;28;658306;-71
2023/03/17 11:20:19;;;;;;;13.77;6.10;;;12.90;33.70;;;;;;4423100;28;659014;-72
2023/03/17 11:23:09;;;;;;;13.90;5.23;;;13.60;33.90;;;;;;4397982;28;657824;-72
2023/03/17 11:26:03;;;;;;;10.63;5.30;;;14.20;31.00;;;;;;4419898;28;658357;-71
2023/03/17 11:28:56;;;;;;;12.90;5.77;;;14.30;29.80;;;;;;4400228;28;657900;-73
2023/03/17 11:31:45;;;;;;;14.23;5.70;;;14.40;30.00;;;;;;4414820;28;657614;-72
2023/03/17 11:34:42;;;;;;;14.50;6.07;;;14.00;29.50;;;;;;4423422;28;657895;-71
2023/03/17 11:37:39;;;;;;;11.60;5.60;;;13.90;33.80;;;;;;4425128;28;658000;-71
2023/03/17 11:40:30;;;;;;;7.17;3.77;;;14.20;29.10;;;;;;4430007;28;657509;-72
2023/03/17 11:43:25;;;;;;;11.50;5.27;;;13.90;26.40;;;;;;4424480;28;657196;-71
2023/03/17 11:46:14;;;;;;;7.47;4.37;;;14.00;28.40;;;;;;4398614;28;658692;-71
2023/03/17 11:49:04;;;;;;;12.47;5.17;;;14.30;27.70;;;;;;4429773;28;656888;-72
2023/03/17 11:51:58;;;;;;;9.60;5.20;;;14.60;30.00;;;;;;4419116;28;657494;-71
2023/03/17 11:54:49;;;;;;;9.97;5.30;;;14.80;31.90;;;;;;4416756;28;656560;-73
2023/03/17 11:57:41;;;;;;;12.00;5.00;;;15.00;28.40;;;;;;4428276;28;656568;-71
2023/03/17 12:00:30;;;;;;;8.27;4.73;;;15.10;27.90;;;;;;4421127;28;657520;-71
2023/03/17 12:03:19;;;;;;;11.10;4.93;;;14.80;28.00;;;;;;4422385;28;657204;-71
2023/03/17 12:06:11;;;;;;;14.35;4.88;;;14.60;29.80;;;;;;4424761;28;657869;-71
2023/03/17 12:08:59;;;;;;;11.43;5.57;;;15.00;30.70;;;;;;4420268;28;659029;-72
2023/03/17 12:11:48;;;;;;;10.00;5.00;;;15.50;31.00;;;;;;4419882;28;658624;-71
2023/03/17 12:14:38;;;;;;;10.90;5.00;;;15.40;28.80;;;;;;4416682;28;658051;-71
2023/03/17 12:17:26;;;;;;;10.53;5.07;;;14.70;28.90;;;;;;4417883;28;657726;-71
2023/03/17 12:20:17;;;;;;;14.77;4.70;;;14.70;30.20;;;;;;4438555;28;657561;-71
2023/03/17 12:23:06;;;;;;;8.90;4.70;;;15.00;29.70;;;;;;4420563;28;657144;-70
2023/03/17 12:25:58;;;;;;;11.77;5.23;;;15.10;28.50;;;;;;4421684;28;657283;-71
2023/03/17 12:28:50;;;;;;;14.40;4.90;;;15.30;30.20;;;;;;4406393;28;658195;-71
2023/03/17 12:31:38;;;;;;;16.60;4.73;;;15.50;29.40;;;;;;4416571;28;658656;-71
2023/03/17 12:34:27;;;;;;;7.20;4.10;;;15.70;28.60;;;;;;4429521;28;657103;-71
2023/03/17 12:37:15;;;;;;;8.27;3.97;;;15.70;28.60;;;;;;4438398;28;656499;-71
2023/03/17 12:40:05;;;;;;;8.20;3.63;;;15.80;28.00;;;;;;4415888;28;658208;-70
2023/03/17 12:42:53;;;;;;;10.47;4.33;;;16.20;27.10;;;;;;4419648;28;657271;-71
2023/03/17 12:45:58;;;;;;;8.80;3.87;;;16.60;27.50;;;;;;4417903;28;657806;-71
2023/03/17 12:48:53;;;;;;;10.67;3.43;;;16.50;27.30;;;;;;4383463;28;656648;-71
2023/03/17 12:52:03;;;;;;;5.37;2.93;;;16.30;27.70;;;;;;4372568;28;658458;-71
2023/03/17 12:54:51;;;;;;;9.57;3.57;;;15.70;24.90;;;;;;4388701;28;656127;-71
2023/03/17 12:57:39;;;;;;;9.00;3.47;;;16.00;29.10;;;;;;4405866;28;656710;-71
2023/03/17 13:00:28;;;;;;;9.10;3.63;;;16.70;26.00;;;;;;4384798;28;656271;-71
2023/03/17 13:03:21;;;;;;;11.77;3.83;;;16.80;27.50;;;;;;4388213;28;656856;-71
2023/03/17 13:06:16;;;;;;;7.70;3.70;;;16.90;25.60;;;;;;4383482;28;657918;-70
2023/03/17 13:09:42;;;;;;;6.13;3.43;;;17.20;24.90;;;;;;4387909;28;656620;-71
2023/03/17 13:13:04;;;;;;;6.33;3.67;;;17.20;24.80;;;;;;4381560;28;657053;-70
2023/03/17 13:15:57;;;;;;;12.13;5.33;;;17.90;27.20;;;;;;4357124;28;657249;-71
2023/03/17 13:18:48;;;;;;;9.43;3.53;;;17.60;24.60;;;;;;4388271;28;658026;-71
2023/03/17 13:21:37;;;;;;;9.50;3.70;;;18.00;25.00;;;;;;4375695;28;656671;-71
2023/03/17 13:24:45;;;;;;;6.80;3.60;;;17.60;25.50;;;;;;4407590;28;656863;-70
2023/03/17 13:27:43;;;;;;;6.37;3.13;;;17.70;25.30;;;;;;4363889;28;656889;-71
2023/03/17 13:31:11;;;;;;;8.20;3.67;;;17.90;24.20;;;;;;4365132;28;656574;-71
2023/03/17 13:34:03;;;;;;;9.23;4.63;;;18.30;25.80;;;;;;4365873;28;657737;-70
2023/03/17 13:37:04;;;;;;;8.97;4.20;;;18.70;24.90;;;;;;4388098;28;657165;-71
2023/03/17 13:40:11;;;;;;;9.33;4.00;;;17.70;23.30;;;;;;4402156;28;656461;-71
2023/03/17 13:43:13;;;;;;;7.50;3.57;;;17.10;24.30;;;;;;4398690;28;657836;-70
2023/03/17 13:46:20;;;;;;;7.47;3.47;;;16.80;24.00;;;;;;4373018;28;656618;-71
2023/03/17 13:49:21;;;;;;;9.33;3.30;;;17.00;23.00;;;;;;4384530;28;657457;-71
2023/03/17 13:52:11;;;;;;;7.90;3.90;;;16.80;24.00;;;;;;4418816;28;657120;-71
2023/03/17 13:55:01;;;;;;;8.07;4.10;;;16.70;25.00;;;;;;4410116;28;657202;-71
2023/03/17 13:57:55;;;;;;;5.23;3.60;;;16.80;25.60;;;;;;4415696;28;657262;-71
2023/03/17 14:00:44;;;;;;;8.70;3.70;;;16.50;25.10;;;;;;4376712;28;656496;-71
2023/03/17 14:03:36;;;;;;;8.33;4.10;;;16.50;25.30;;;;;;4412528;28;656319;-70
2023/03/17 14:06:30;;;;;;;7.00;3.63;;;16.00;24.60;;;;;;4400977;28;657538;-71
2023/03/17 14:09:26;;;;;;;7.37;3.50;;;16.10;25.30;;;;;;4420496;28;656896;-70
2023/03/17 14:12:17;;;;;;;8.33;3.93;;;16.10;25.40;;;;;;4417772;28;656869;-69
2023/03/17 14:15:05;;;;;;;9.30;3.70;;;16.00;25.90;;;;;;4412011;28;656353;-70